sensor_id;sensor_type;location;lat;lon;timestamp;P1;durP1;ratioP1;P2;durP2;ratioP2
21837;SDS011;11081;45.946;6.140;2023-09-12T00:00:53;8.32;;;5.82;;
21837;SDS011;11081;45.946;6.140;2023-09-12T00:03:21;9.30;;;6.03;;
21837;SDS011;11081;45.946;6.140;2023-09-12T00:05:52;6.35;;;5.55;;
21837;SDS011;11081;45.946;6.140;2023-09-12T00:08:20;7.32;;;6.40;;
21837;SDS011;11081;45.946;6.140;2023-09-12T00:10:57;9.43;;;6.45;;
21837;SDS011;11081;45.946;6.140;2023-09-12T00:13:26;8.30;;;5.68;;
21837;SDS011;11081;45.946;6.140;2023-09-12T00:15:55;9.43;;;5.90;;
21837;SDS011;11081;45.946;6.140;2023-09-12T00:18:23;9.57;;;5.65;;
21837;SDS011;11081;45.946;6.140;2023-09-12T00:20:53;7.55;;;5.57;;
21837;SDS011;11081;45.946;6.140;2023-09-12T00:23:21;8.00;;;5.78;;
21837;SDS011;11081;45.946;6.140;2023-09-12T00:25:50;7.15;;;5.50;;
21837;SDS011;11081;45.946;6.140;2023-09-12T00:28:19;12.50;;;6.22;;
21837;SDS011;11081;45.946;6.140;2023-09-12T00:30:47;7.20;;;5.60;;
21837;SDS011;11081;45.946;6.140;2023-09-12T00:33:15;9.48;;;6.35;;
21837;SDS011;11081;45.946;6.140;2023-09-12T00:35:43;8.95;;;6.40;;
21837;SDS011;11081;45.946;6.140;2023-09-12T00:38:13;7.32;;;6.45;;
21837;SDS011;11081;45.946;6.140;2023-09-12T00:40:41;6.55;;;5.72;;
21837;SDS011;11081;45.946;6.140;2023-09-12T00:43:09;6.63;;;5.80;;
21837;SDS011;11081;45.946;6.140;2023-09-12T00:45:37;7.78;;;6.20;;
21837;SDS011;11081;45.946;6.140;2023-09-12T00:48:06;7.10;;;5.55;;
21837;SDS011;11081;45.946;6.140;2023-09-12T00:50:35;9.55;;;6.18;;
21837;SDS011;11081;45.946;6.140;2023-09-12T00:53:04;9.27;;;6.10;;
21837;SDS011;11081;45.946;6.140;2023-09-12T00:55:34;8.05;;;5.78;;
21837;SDS011;11081;45.946;6.140;2023-09-12T00:58:04;9.15;;;5.88;;
21837;SDS011;11081;45.946;6.140;2023-09-12T01:00:34;7.30;;;6.05;;
21837;SDS011;11081;45.946;6.140;2023-09-12T01:03:02;9.77;;;6.15;;
21837;SDS011;11081;45.946;6.140;2023-09-12T01:05:31;7.70;;;6.05;;
21837;SDS011;11081;45.946;6.140;2023-09-12T01:07:59;7.00;;;5.50;;
21837;SDS011;11081;45.946;6.140;2023-09-12T01:10:28;7.82;;;5.97;;
21837;SDS011;11081;45.946;6.140;2023-09-12T01:12:58;8.25;;;6.20;;
21837;SDS011;11081;45.946;6.140;2023-09-12T01:15:26;7.78;;;6.43;;
21837;SDS011;11081;45.946;6.140;2023-09-12T01:17:55;8.02;;;5.88;;
21837;SDS011;11081;45.946;6.140;2023-09-12T01:20:25;11.00;;;5.85;;
21837;SDS011;11081;45.946;6.140;2023-09-12T01:23:00;8.50;;;5.97;;
21837;SDS011;11081;45.946;6.140;2023-09-12T01:25:58;8.50;;;5.88;;
21837;SDS011;11081;45.946;6.140;2023-09-12T01:28:33;9.15;;;5.95;;
21837;SDS011;11081;45.946;6.140;2023-09-12T01:31:02;7.93;;;5.75;;
21837;SDS011;11081;45.946;6.140;2023-09-12T01:33:32;9.35;;;6.78;;
21837;SDS011;11081;45.946;6.140;2023-09-12T01:36:00;7.75;;;5.88;;
21837;SDS011;11081;45.946;6.140;2023-09-12T01:38:29;8.75;;;6.43;;
21837;SDS011;11081;45.946;6.140;2023-09-12T01:40:57;9.57;;;6.13;;
21837;SDS011;11081;45.946;6.140;2023-09-12T01:43:25;7.80;;;5.68;;
21837;SDS011;11081;45.946;6.140;2023-09-12T01:45:57;10.82;;;6.00;;
21837;SDS011;11081;45.946;6.140;2023-09-12T01:48:28;10.32;;;6.32;;
21837;SDS011;11081;45.946;6.140;2023-09-12T01:51:00;8.27;;;6.30;;
21837;SDS011;11081;45.946;6.140;2023-09-12T01:53:29;8.65;;;6.25;;
21837;SDS011;11081;45.946;6.140;2023-09-12T01:56:00;7.30;;;6.25;;
21837;SDS011;11081;45.946;6.140;2023-09-12T01:58:28;7.30;;;5.72;;
21837;SDS011;11081;45.946;6.140;2023-09-12T02:00:57;7.90;;;6.28;;
21837;SDS011;11081;45.946;6.140;2023-09-12T02:03:25;7.53;;;5.38;;
21837;SDS011;11081;45.946;6.140;2023-09-12T02:05:54;7.75;;;5.75;;
21837;SDS011;11081;45.946;6.140;2023-09-12T02:08:22;7.45;;;6.05;;
21837;SDS011;11081;45.946;6.140;2023-09-12T02:10:50;11.63;;;6.95;;
21837;SDS011;11081;45.946;6.140;2023-09-12T02:13:18;10.73;;;6.57;;
21837;SDS011;11081;45.946;6.140;2023-09-12T02:15:46;9.88;;;6.32;;
21837;SDS011;11081;45.946;6.140;2023-09-12T02:18:16;8.07;;;6.28;;
21837;SDS011;11081;45.946;6.140;2023-09-12T02:20:44;8.77;;;6.03;;
21837;SDS011;11081;45.946;6.140;2023-09-12T02:23:12;7.30;;;5.75;;
21837;SDS011;11081;45.946;6.140;2023-09-12T02:25:41;7.82;;;6.15;;
21837;SDS011;11081;45.946;6.140;2023-09-12T02:28:09;11.48;;;6.65;;
21837;SDS011;11081;45.946;6.140;2023-09-12T02:30:37;8.68;;;6.32;;
21837;SDS011;11081;45.946;6.140;2023-09-12T02:33:06;7.15;;;5.72;;
21837;SDS011;11081;45.946;6.140;2023-09-12T02:35:36;8.95;;;6.03;;
21837;SDS011;11081;45.946;6.140;2023-09-12T02:38:04;10.70;;;6.18;;
21837;SDS011;11081;45.946;6.140;2023-09-12T02:40:32;9.45;;;6.65;;
21837;SDS011;11081;45.946;6.140;2023-09-12T02:43:00;8.55;;;6.40;;
21837;SDS011;11081;45.946;6.140;2023-09-12T02:45:28;8.88;;;6.47;;
21837;SDS011;11081;45.946;6.140;2023-09-12T02:47:56;9.88;;;5.78;;
21837;SDS011;11081;45.946;6.140;2023-09-12T02:50:24;10.23;;;5.93;;
21837;SDS011;11081;45.946;6.140;2023-09-12T02:52:54;9.73;;;6.40;;
21837;SDS011;11081;45.946;6.140;2023-09-12T02:55:22;7.32;;;6.53;;
21837;SDS011;11081;45.946;6.140;2023-09-12T02:57:50;10.65;;;6.25;;
21837;SDS011;11081;45.946;6.140;2023-09-12T03:00:18;8.50;;;6.43;;
21837;SDS011;11081;45.946;6.140;2023-09-12T03:02:46;10.73;;;6.75;;
21837;SDS011;11081;45.946;6.140;2023-09-12T03:05:15;10.23;;;6.60;;
21837;SDS011;11081;45.946;6.140;2023-09-12T03:07:43;11.93;;;6.53;;
21837;SDS011;11081;45.946;6.140;2023-09-12T03:10:12;8.70;;;5.95;;
21837;SDS011;11081;45.946;6.140;2023-09-12T03:12:40;7.22;;;5.47;;
21837;SDS011;11081;45.946;6.140;2023-09-12T03:15:09;11.50;;;6.97;;
21837;SDS011;11081;45.946;6.140;2023-09-12T03:17:37;7.40;;;5.93;;
21837;SDS011;11081;45.946;6.140;2023-09-12T03:20:06;7.18;;;6.07;;
21837;SDS011;11081;45.946;6.140;2023-09-12T03:22:36;9.20;;;6.47;;
21837;SDS011;11081;45.946;6.140;2023-09-12T03:25:05;9.25;;;6.55;;
21837;SDS011;11081;45.946;6.140;2023-09-12T03:27:36;8.00;;;6.57;;
21837;SDS011;11081;45.946;6.140;2023-09-12T03:30:05;9.00;;;6.72;;
21837;SDS011;11081;45.946;6.140;2023-09-12T03:32:33;9.15;;;6.50;;
21837;SDS011;11081;45.946;6.140;2023-09-12T03:35:01;10.13;;;6.63;;
21837;SDS011;11081;45.946;6.140;2023-09-12T03:37:30;9.38;;;6.28;;
21837;SDS011;11081;45.946;6.140;2023-09-12T03:39:58;8.15;;;6.40;;
21837;SDS011;11081;45.946;6.140;2023-09-12T03:42:26;8.98;;;5.90;;
21837;SDS011;11081;45.946;6.140;2023-09-12T03:45:09;8.75;;;7.00;;
21837;SDS011;11081;45.946;6.140;2023-09-12T03:47:39;8.02;;;6.75;;
21837;SDS011;11081;45.946;6.140;2023-09-12T03:50:07;10.52;;;6.00;;
21837;SDS011;11081;45.946;6.140;2023-09-12T03:52:35;11.43;;;6.90;;
21837;SDS011;11081;45.946;6.140;2023-09-12T03:55:04;9.07;;;6.30;;
21837;SDS011;11081;45.946;6.140;2023-09-12T03:57:33;8.90;;;6.50;;
21837;SDS011;11081;45.946;6.140;2023-09-12T04:00:01;10.07;;;5.90;;
21837;SDS011;11081;45.946;6.140;2023-09-12T04:02:40;7.95;;;6.60;;
21837;SDS011;11081;45.946;6.140;2023-09-12T04:05:08;8.45;;;6.63;;
21837;SDS011;11081;45.946;6.140;2023-09-12T04:07:36;9.05;;;6.45;;
21837;SDS011;11081;45.946;6.140;2023-09-12T04:10:05;8.20;;;6.35;;
21837;SDS011;11081;45.946;6.140;2023-09-12T04:12:33;9.68;;;6.60;;
21837;SDS011;11081;45.946;6.140;2023-09-12T04:15:02;8.20;;;6.97;;
21837;SDS011;11081;45.946;6.140;2023-09-12T04:17:30;9.15;;;6.43;;
21837;SDS011;11081;45.946;6.140;2023-09-12T04:20:00;7.55;;;6.53;;
21837;SDS011;11081;45.946;6.140;2023-09-12T04:22:28;7.78;;;6.63;;
21837;SDS011;11081;45.946;6.140;2023-09-12T04:24:56;8.27;;;5.97;;
21837;SDS011;11081;45.946;6.140;2023-09-12T04:27:24;10.55;;;6.75;;
21837;SDS011;11081;45.946;6.140;2023-09-12T04:29:52;14.10;;;6.72;;
21837;SDS011;11081;45.946;6.140;2023-09-12T04:32:20;7.68;;;6.47;;
21837;SDS011;11081;45.946;6.140;2023-09-12T04:34:51;8.10;;;6.30;;
21837;SDS011;11081;45.946;6.140;2023-09-12T04:37:20;9.38;;;6.28;;
21837;SDS011;11081;45.946;6.140;2023-09-12T04:39:48;7.90;;;6.40;;
21837;SDS011;11081;45.946;6.140;2023-09-12T04:42:16;9.02;;;6.05;;
21837;SDS011;11081;45.946;6.140;2023-09-12T04:44:44;8.30;;;7.05;;
21837;SDS011;11081;45.946;6.140;2023-09-12T04:47:12;9.18;;;6.47;;
21837;SDS011;11081;45.946;6.140;2023-09-12T04:49:41;10.13;;;6.25;;
21837;SDS011;11081;45.946;6.140;2023-09-12T04:52:11;7.28;;;6.30;;
21837;SDS011;11081;45.946;6.140;2023-09-12T04:54:41;9.88;;;6.82;;
21837;SDS011;11081;45.946;6.140;2023-09-12T04:57:09;9.77;;;7.22;;
21837;SDS011;11081;45.946;6.140;2023-09-12T04:59:39;8.80;;;6.40;;
21837;SDS011;11081;45.946;6.140;2023-09-12T05:02:06;12.65;;;6.53;;
21837;SDS011;11081;45.946;6.140;2023-09-12T05:04:35;8.18;;;6.22;;
21837;SDS011;11081;45.946;6.140;2023-09-12T05:07:03;6.65;;;5.70;;
21837;SDS011;11081;45.946;6.140;2023-09-12T05:09:31;8.48;;;6.40;;
21837;SDS011;11081;45.946;6.140;2023-09-12T05:12:00;10.57;;;6.43;;
21837;SDS011;11081;45.946;6.140;2023-09-12T05:14:28;9.10;;;5.97;;
21837;SDS011;11081;45.946;6.140;2023-09-12T05:16:57;8.23;;;6.25;;
21837;SDS011;11081;45.946;6.140;2023-09-12T05:19:25;8.93;;;6.45;;
21837;SDS011;11081;45.946;6.140;2023-09-12T05:21:53;11.40;;;6.80;;
21837;SDS011;11081;45.946;6.140;2023-09-12T05:24:21;8.23;;;6.90;;
21837;SDS011;11081;45.946;6.140;2023-09-12T05:26:49;8.95;;;6.70;;
21837;SDS011;11081;45.946;6.140;2023-09-12T05:29:18;10.25;;;6.82;;
21837;SDS011;11081;45.946;6.140;2023-09-12T05:31:46;9.57;;;7.18;;
21837;SDS011;11081;45.946;6.140;2023-09-12T05:34:15;11.55;;;6.45;;
21837;SDS011;11081;45.946;6.140;2023-09-12T05:36:43;7.53;;;6.38;;
21837;SDS011;11081;45.946;6.140;2023-09-12T05:39:11;8.55;;;6.85;;
21837;SDS011;11081;45.946;6.140;2023-09-12T05:41:41;11.50;;;6.95;;
21837;SDS011;11081;45.946;6.140;2023-09-12T05:44:09;7.45;;;6.30;;
21837;SDS011;11081;45.946;6.140;2023-09-12T05:46:40;9.50;;;6.30;;
21837;SDS011;11081;45.946;6.140;2023-09-12T05:49:09;10.93;;;7.10;;
21837;SDS011;11081;45.946;6.140;2023-09-12T05:51:36;7.47;;;6.53;;
21837;SDS011;11081;45.946;6.140;2023-09-12T05:54:05;11.05;;;7.25;;
21837;SDS011;11081;45.946;6.140;2023-09-12T05:56:34;8.73;;;6.90;;
21837;SDS011;11081;45.946;6.140;2023-09-12T05:59:02;9.38;;;6.93;;
21837;SDS011;11081;45.946;6.140;2023-09-12T06:01:30;10.55;;;7.25;;
21837;SDS011;11081;45.946;6.140;2023-09-12T06:04:01;8.50;;;6.15;;
21837;SDS011;11081;45.946;6.140;2023-09-12T06:06:29;15.18;;;6.82;;
21837;SDS011;11081;45.946;6.140;2023-09-12T06:08:58;11.90;;;6.55;;
21837;SDS011;11081;45.946;6.140;2023-09-12T06:11:25;11.25;;;7.43;;
21837;SDS011;11081;45.946;6.140;2023-09-12T06:13:53;12.45;;;7.30;;
21837;SDS011;11081;45.946;6.140;2023-09-12T06:16:22;14.50;;;7.53;;
21837;SDS011;11081;45.946;6.140;2023-09-12T06:18:50;8.95;;;6.82;;
21837;SDS011;11081;45.946;6.140;2023-09-12T06:21:21;14.48;;;7.45;;
21837;SDS011;11081;45.946;6.140;2023-09-12T06:26:36;10.30;;;6.65;;
21837;SDS011;11081;45.946;6.140;2023-09-12T06:29:04;11.65;;;7.15;;
21837;SDS011;11081;45.946;6.140;2023-09-12T06:31:32;10.73;;;7.10;;
21837;SDS011;11081;45.946;6.140;2023-09-12T06:34:02;11.60;;;7.50;;
21837;SDS011;11081;45.946;6.140;2023-09-12T06:36:31;17.77;;;6.95;;
21837;SDS011;11081;45.946;6.140;2023-09-12T06:38:59;17.75;;;7.80;;
21837;SDS011;11081;45.946;6.140;2023-09-12T06:41:27;9.93;;;7.18;;
21837;SDS011;11081;45.946;6.140;2023-09-12T06:43:56;11.82;;;7.90;;
21837;SDS011;11081;45.946;6.140;2023-09-12T06:46:25;14.32;;;6.32;;
21837;SDS011;11081;45.946;6.140;2023-09-12T06:48:54;13.88;;;8.25;;
21837;SDS011;11081;45.946;6.140;2023-09-12T06:51:23;18.52;;;9.35;;
21837;SDS011;11081;45.946;6.140;2023-09-12T06:53:57;17.95;;;9.27;;
21837;SDS011;11081;45.946;6.140;2023-09-12T06:56:26;20.92;;;9.88;;
21837;SDS011;11081;45.946;6.140;2023-09-12T06:58:54;19.80;;;9.02;;
21837;SDS011;11081;45.946;6.140;2023-09-12T07:01:22;20.25;;;9.15;;
21837;SDS011;11081;45.946;6.140;2023-09-12T07:03:50;16.05;;;8.55;;
21837;SDS011;11081;45.946;6.140;2023-09-12T07:06:20;14.32;;;8.10;;
21837;SDS011;11081;45.946;6.140;2023-09-12T07:08:49;16.15;;;8.75;;
21837;SDS011;11081;45.946;6.140;2023-09-12T07:11:19;20.52;;;9.15;;
21837;SDS011;11081;45.946;6.140;2023-09-12T07:13:47;12.75;;;8.75;;
21837;SDS011;11081;45.946;6.140;2023-09-12T07:16:17;9.88;;;7.68;;
21837;SDS011;11081;45.946;6.140;2023-09-12T07:18:47;15.13;;;8.52;;
21837;SDS011;11081;45.946;6.140;2023-09-12T07:21:15;11.35;;;8.07;;
21837;SDS011;11081;45.946;6.140;2023-09-12T07:23:44;12.02;;;7.80;;
21837;SDS011;11081;45.946;6.140;2023-09-12T07:26:12;10.35;;;7.82;;
21837;SDS011;11081;45.946;6.140;2023-09-12T07:28:42;12.35;;;7.65;;
21837;SDS011;11081;45.946;6.140;2023-09-12T07:31:10;12.70;;;7.07;;
21837;SDS011;11081;45.946;6.140;2023-09-12T07:33:39;9.30;;;6.55;;
21837;SDS011;11081;45.946;6.140;2023-09-12T07:36:08;9.57;;;7.50;;
21837;SDS011;11081;45.946;6.140;2023-09-12T07:38:36;12.20;;;8.10;;
21837;SDS011;11081;45.946;6.140;2023-09-12T07:41:04;11.20;;;7.40;;
21837;SDS011;11081;45.946;6.140;2023-09-12T07:43:32;15.23;;;7.35;;
21837;SDS011;11081;45.946;6.140;2023-09-12T07:46:01;13.57;;;7.50;;
21837;SDS011;11081;45.946;6.140;2023-09-12T07:48:30;13.68;;;7.22;;
21837;SDS011;11081;45.946;6.140;2023-09-12T07:50:58;13.95;;;7.10;;
21837;SDS011;11081;45.946;6.140;2023-09-12T07:53:26;9.27;;;6.80;;
21837;SDS011;11081;45.946;6.140;2023-09-12T07:55:58;15.32;;;7.72;;
21837;SDS011;11081;45.946;6.140;2023-09-12T07:58:26;10.00;;;6.57;;
21837;SDS011;11081;45.946;6.140;2023-09-12T08:00:54;8.98;;;6.97;;
21837;SDS011;11081;45.946;6.140;2023-09-12T08:03:24;12.15;;;7.10;;
21837;SDS011;11081;45.946;6.140;2023-09-12T08:05:55;14.43;;;7.18;;
21837;SDS011;11081;45.946;6.140;2023-09-12T08:08:24;13.05;;;7.10;;
21837;SDS011;11081;45.946;6.140;2023-09-12T08:10:52;13.32;;;6.40;;
21837;SDS011;11081;45.946;6.140;2023-09-12T08:13:20;10.38;;;6.13;;
21837;SDS011;11081;45.946;6.140;2023-09-12T08:15:49;15.30;;;6.22;;
21837;SDS011;11081;45.946;6.140;2023-09-12T08:18:17;9.63;;;6.28;;
21837;SDS011;11081;45.946;6.140;2023-09-12T08:20:46;15.27;;;6.30;;
21837;SDS011;11081;45.946;6.140;2023-09-12T08:23:14;11.10;;;5.95;;
21837;SDS011;11081;45.946;6.140;2023-09-12T08:25:42;10.75;;;5.25;;
21837;SDS011;11081;45.946;6.140;2023-09-12T08:28:10;8.18;;;5.40;;
21837;SDS011;11081;45.946;6.140;2023-09-12T08:30:38;9.57;;;4.70;;
21837;SDS011;11081;45.946;6.140;2023-09-12T08:33:06;6.70;;;4.82;;
21837;SDS011;11081;45.946;6.140;2023-09-12T08:35:34;6.55;;;4.65;;
21837;SDS011;11081;45.946;6.140;2023-09-12T08:38:04;10.90;;;5.05;;
21837;SDS011;11081;45.946;6.140;2023-09-12T08:40:32;7.28;;;4.72;;
21837;SDS011;11081;45.946;6.140;2023-09-12T08:43:01;8.63;;;4.68;;
21837;SDS011;11081;45.946;6.140;2023-09-12T08:45:31;7.57;;;4.57;;
21837;SDS011;11081;45.946;6.140;2023-09-12T08:47:59;7.93;;;4.32;;
21837;SDS011;11081;45.946;6.140;2023-09-12T08:50:29;6.32;;;4.15;;
21837;SDS011;11081;45.946;6.140;2023-09-12T08:52:59;4.72;;;3.90;;
21837;SDS011;11081;45.946;6.140;2023-09-12T08:55:35;4.63;;;4.05;;
21837;SDS011;11081;45.946;6.140;2023-09-12T08:58:04;6.10;;;3.80;;
21837;SDS011;11081;45.946;6.140;2023-09-12T09:00:33;5.85;;;3.70;;
21837;SDS011;11081;45.946;6.140;2023-09-12T09:03:03;6.13;;;4.30;;
21837;SDS011;11081;45.946;6.140;2023-09-12T09:05:32;8.70;;;3.60;;
21837;SDS011;11081;45.946;6.140;2023-09-12T09:08:02;5.90;;;4.32;;
21837;SDS011;11081;45.946;6.140;2023-09-12T09:10:31;13.52;;;4.00;;
21837;SDS011;11081;45.946;6.140;2023-09-12T09:13:17;6.60;;;4.10;;
21837;SDS011;11081;45.946;6.140;2023-09-12T09:15:45;6.82;;;3.72;;
21837;SDS011;11081;45.946;6.140;2023-09-12T09:18:14;7.57;;;3.92;;
21837;SDS011;11081;45.946;6.140;2023-09-12T09:20:42;4.35;;;3.55;;
21837;SDS011;11081;45.946;6.140;2023-09-12T09:23:12;7.00;;;4.72;;
21837;SDS011;11081;45.946;6.140;2023-09-12T09:25:40;6.20;;;4.03;;
21837;SDS011;11081;45.946;6.140;2023-09-12T09:28:15;8.55;;;4.35;;
21837;SDS011;11081;45.946;6.140;2023-09-12T09:30:46;7.00;;;4.38;;
21837;SDS011;11081;45.946;6.140;2023-09-12T09:33:15;9.55;;;4.15;;
21837;SDS011;11081;45.946;6.140;2023-09-12T09:35:45;7.30;;;4.00;;
21837;SDS011;11081;45.946;6.140;2023-09-12T09:38:16;4.10;;;3.67;;
21837;SDS011;11081;45.946;6.140;2023-09-12T09:40:47;8.50;;;3.58;;
21837;SDS011;11081;45.946;6.140;2023-09-12T09:43:20;4.60;;;3.53;;
21837;SDS011;11081;45.946;6.140;2023-09-12T09:45:48;7.50;;;4.00;;
21837;SDS011;11081;45.946;6.140;2023-09-12T09:48:17;5.32;;;4.20;;
21837;SDS011;11081;45.946;6.140;2023-09-12T09:50:46;6.72;;;3.67;;
21837;SDS011;11081;45.946;6.140;2023-09-12T09:53:14;7.38;;;4.25;;
21837;SDS011;11081;45.946;6.140;2023-09-12T09:55:42;5.28;;;3.92;;
21837;SDS011;11081;45.946;6.140;2023-09-12T09:58:14;9.85;;;3.80;;
21837;SDS011;11081;45.946;6.140;2023-09-12T10:00:45;4.35;;;3.35;;
21837;SDS011;11081;45.946;6.140;2023-09-12T10:03:16;7.93;;;4.20;;
21837;SDS011;11081;45.946;6.140;2023-09-12T10:05:49;9.15;;;4.22;;
21837;SDS011;11081;45.946;6.140;2023-09-12T10:08:19;5.97;;;4.57;;
21837;SDS011;11081;45.946;6.140;2023-09-12T10:10:50;6.97;;;4.13;;
21837;SDS011;11081;45.946;6.140;2023-09-12T10:13:19;5.55;;;4.10;;
21837;SDS011;11081;45.946;6.140;2023-09-12T10:15:54;7.10;;;4.25;;
21837;SDS011;11081;45.946;6.140;2023-09-12T10:18:24;5.95;;;3.88;;
21837;SDS011;11081;45.946;6.140;2023-09-12T10:20:58;6.32;;;4.30;;
21837;SDS011;11081;45.946;6.140;2023-09-12T10:23:37;7.75;;;3.67;;
21837;SDS011;11081;45.946;6.140;2023-09-12T10:26:10;8.27;;;3.97;;
21837;SDS011;11081;45.946;6.140;2023-09-12T10:28:40;8.15;;;4.00;;
21837;SDS011;11081;45.946;6.140;2023-09-12T10:31:11;4.20;;;3.25;;
21837;SDS011;11081;45.946;6.140;2023-09-12T10:33:40;7.90;;;3.55;;
21837;SDS011;11081;45.946;6.140;2023-09-12T10:36:12;7.05;;;4.10;;
21837;SDS011;11081;45.946;6.140;2023-09-12T10:38:41;10.68;;;3.95;;
21837;SDS011;11081;45.946;6.140;2023-09-12T10:41:11;8.10;;;4.13;;
21837;SDS011;11081;45.946;6.140;2023-09-12T10:43:42;5.75;;;3.42;;
21837;SDS011;11081;45.946;6.140;2023-09-12T10:46:14;4.85;;;3.25;;
21837;SDS011;11081;45.946;6.140;2023-09-12T10:48:42;4.90;;;3.90;;
21837;SDS011;11081;45.946;6.140;2023-09-12T10:51:11;6.00;;;3.60;;
21837;SDS011;11081;45.946;6.140;2023-09-12T10:53:44;4.95;;;3.75;;
21837;SDS011;11081;45.946;6.140;2023-09-12T10:56:17;4.65;;;3.50;;
21837;SDS011;11081;45.946;6.140;2023-09-12T11:01:40;7.40;;;3.70;;
21837;SDS011;11081;45.946;6.140;2023-09-12T11:04:31;4.50;;;3.15;;
21837;SDS011;11081;45.946;6.140;2023-09-12T11:07:01;4.68;;;2.88;;
21837;SDS011;11081;45.946;6.140;2023-09-12T11:09:29;5.22;;;3.30;;
21837;SDS011;11081;45.946;6.140;2023-09-12T11:11:58;5.40;;;3.60;;
21837;SDS011;11081;45.946;6.140;2023-09-12T11:14:31;6.20;;;3.42;;
21837;SDS011;11081;45.946;6.140;2023-09-12T11:17:20;5.65;;;3.25;;
21837;SDS011;11081;45.946;6.140;2023-09-12T11:19:50;4.85;;;3.17;;
21837;SDS011;11081;45.946;6.140;2023-09-12T11:22:23;6.43;;;3.72;;
21837;SDS011;11081;45.946;6.140;2023-09-12T11:24:52;5.53;;;3.30;;
21837;SDS011;11081;45.946;6.140;2023-09-12T11:27:23;4.82;;;3.45;;
21837;SDS011;11081;45.946;6.140;2023-09-12T11:29:52;3.92;;;3.33;;
21837;SDS011;11081;45.946;6.140;2023-09-12T11:32:30;6.70;;;3.75;;
21837;SDS011;11081;45.946;6.140;2023-09-12T11:35:00;6.97;;;3.45;;
21837;SDS011;11081;45.946;6.140;2023-09-12T11:37:33;4.85;;;3.22;;
21837;SDS011;11081;45.946;6.140;2023-09-12T11:40:14;4.53;;;3.20;;
21837;SDS011;11081;45.946;6.140;2023-09-12T11:42:44;4.82;;;3.70;;
21837;SDS011;11081;45.946;6.140;2023-09-12T11:45:14;5.78;;;3.28;;
21837;SDS011;11081;45.946;6.140;2023-09-12T11:47:44;3.80;;;3.13;;
21837;SDS011;11081;45.946;6.140;2023-09-12T11:50:26;7.57;;;3.58;;
21837;SDS011;11081;45.946;6.140;2023-09-12T11:53:01;5.28;;;3.28;;
21837;SDS011;11081;45.946;6.140;2023-09-12T11:55:31;6.68;;;3.55;;
21837;SDS011;11081;45.946;6.140;2023-09-12T11:58:00;5.93;;;3.58;;
21837;SDS011;11081;45.946;6.140;2023-09-12T12:00:29;8.18;;;3.78;;
21837;SDS011;11081;45.946;6.140;2023-09-12T12:02:58;6.22;;;3.40;;
21837;SDS011;11081;45.946;6.140;2023-09-12T12:05:27;5.80;;;4.00;;
21837;SDS011;11081;45.946;6.140;2023-09-12T12:07:55;6.30;;;3.67;;
21837;SDS011;11081;45.946;6.140;2023-09-12T12:10:43;54.03;;;10.15;;
21837;SDS011;11081;45.946;6.140;2023-09-12T12:13:17;7.60;;;3.25;;
21837;SDS011;11081;45.946;6.140;2023-09-12T12:15:45;9.93;;;4.90;;
21837;SDS011;11081;45.946;6.140;2023-09-12T12:18:15;4.13;;;3.22;;
21837;SDS011;11081;45.946;6.140;2023-09-12T12:20:43;6.07;;;3.50;;
21837;SDS011;11081;45.946;6.140;2023-09-12T12:23:11;11.80;;;4.72;;
21837;SDS011;11081;45.946;6.140;2023-09-12T12:25:40;4.38;;;3.58;;
21837;SDS011;11081;45.946;6.140;2023-09-12T12:28:08;4.60;;;3.22;;
21837;SDS011;11081;45.946;6.140;2023-09-12T12:30:36;6.78;;;3.70;;
21837;SDS011;11081;45.946;6.140;2023-09-12T12:33:06;6.45;;;3.35;;
21837;SDS011;11081;45.946;6.140;2023-09-12T12:36:00;4.45;;;3.78;;
21837;SDS011;11081;45.946;6.140;2023-09-12T12:38:31;5.25;;;3.90;;
21837;SDS011;11081;45.946;6.140;2023-09-12T12:41:22;5.93;;;3.53;;
21837;SDS011;11081;45.946;6.140;2023-09-12T12:43:56;10.70;;;3.25;;
21837;SDS011;11081;45.946;6.140;2023-09-12T12:46:28;5.70;;;3.70;;
21837;SDS011;11081;45.946;6.140;2023-09-12T12:48:57;15.30;;;4.10;;
21837;SDS011;11081;45.946;6.140;2023-09-12T12:51:26;6.85;;;3.78;;
21837;SDS011;11081;45.946;6.140;2023-09-12T12:54:02;4.05;;;3.15;;
21837;SDS011;11081;45.946;6.140;2023-09-12T12:56:32;6.15;;;3.45;;
21837;SDS011;11081;45.946;6.140;2023-09-12T12:59:00;7.43;;;3.70;;
21837;SDS011;11081;45.946;6.140;2023-09-12T13:01:30;4.47;;;3.60;;
21837;SDS011;11081;45.946;6.140;2023-09-12T13:03:58;11.73;;;4.47;;
21837;SDS011;11081;45.946;6.140;2023-09-12T13:06:27;5.63;;;3.63;;
21837;SDS011;11081;45.946;6.140;2023-09-12T13:08:57;7.85;;;3.20;;
21837;SDS011;11081;45.946;6.140;2023-09-12T13:11:30;4.97;;;3.33;;
21837;SDS011;11081;45.946;6.140;2023-09-12T13:13:59;8.13;;;3.53;;
21837;SDS011;11081;45.946;6.140;2023-09-12T13:16:28;4.63;;;2.95;;
21837;SDS011;11081;45.946;6.140;2023-09-12T13:18:56;3.97;;;3.15;;
21837;SDS011;11081;45.946;6.140;2023-09-12T13:21:24;7.78;;;3.03;;
21837;SDS011;11081;45.946;6.140;2023-09-12T13:23:53;8.98;;;3.35;;
21837;SDS011;11081;45.946;6.140;2023-09-12T13:26:21;5.82;;;3.03;;
21837;SDS011;11081;45.946;6.140;2023-09-12T13:28:49;5.20;;;3.17;;
21837;SDS011;11081;45.946;6.140;2023-09-12T13:31:17;5.47;;;3.35;;
21837;SDS011;11081;45.946;6.140;2023-09-12T13:33:45;4.30;;;2.90;;
21837;SDS011;11081;45.946;6.140;2023-09-12T13:36:13;4.13;;;2.95;;
21837;SDS011;11081;45.946;6.140;2023-09-12T13:38:41;6.18;;;3.25;;
21837;SDS011;11081;45.946;6.140;2023-09-12T13:41:11;4.93;;;2.70;;
21837;SDS011;11081;45.946;6.140;2023-09-12T13:43:39;8.98;;;2.97;;
21837;SDS011;11081;45.946;6.140;2023-09-12T13:46:08;8.88;;;3.00;;
21837;SDS011;11081;45.946;6.140;2023-09-12T13:48:37;7.90;;;3.05;;
21837;SDS011;11081;45.946;6.140;2023-09-12T13:51:05;5.70;;;3.50;;
21837;SDS011;11081;45.946;6.140;2023-09-12T13:53:33;6.47;;;3.70;;
21837;SDS011;11081;45.946;6.140;2023-09-12T13:56:01;8.80;;;3.53;;
21837;SDS011;11081;45.946;6.140;2023-09-12T13:58:30;4.05;;;3.15;;
21837;SDS011;11081;45.946;6.140;2023-09-12T14:01:07;6.88;;;3.33;;
21837;SDS011;11081;45.946;6.140;2023-09-12T14:03:38;5.93;;;3.35;;
21837;SDS011;11081;45.946;6.140;2023-09-12T14:06:07;6.25;;;3.55;;
21837;SDS011;11081;45.946;6.140;2023-09-12T14:08:35;8.77;;;3.33;;
21837;SDS011;11081;45.946;6.140;2023-09-12T14:11:03;4.40;;;3.00;;
21837;SDS011;11081;45.946;6.140;2023-09-12T14:13:39;8.95;;;3.70;;
21837;SDS011;11081;45.946;6.140;2023-09-12T14:16:07;4.15;;;3.28;;
21837;SDS011;11081;45.946;6.140;2023-09-12T14:18:35;4.22;;;3.00;;
21837;SDS011;11081;45.946;6.140;2023-09-12T14:21:05;7.30;;;3.25;;
21837;SDS011;11081;45.946;6.140;2023-09-12T14:23:33;5.47;;;3.28;;
21837;SDS011;11081;45.946;6.140;2023-09-12T14:26:02;4.28;;;2.85;;
21837;SDS011;11081;45.946;6.140;2023-09-12T14:28:31;7.03;;;3.40;;
21837;SDS011;11081;45.946;6.140;2023-09-12T14:31:03;5.03;;;2.83;;
21837;SDS011;11081;45.946;6.140;2023-09-12T14:33:33;6.53;;;2.90;;
21837;SDS011;11081;45.946;6.140;2023-09-12T14:36:01;3.83;;;2.97;;
21837;SDS011;11081;45.946;6.140;2023-09-12T14:38:30;3.90;;;3.15;;
21837;SDS011;11081;45.946;6.140;2023-09-12T14:40:58;4.05;;;2.83;;
21837;SDS011;11081;45.946;6.140;2023-09-12T14:43:26;4.40;;;2.88;;
21837;SDS011;11081;45.946;6.140;2023-09-12T14:45:55;5.57;;;3.13;;
21837;SDS011;11081;45.946;6.140;2023-09-12T14:48:24;6.47;;;3.20;;
21837;SDS011;11081;45.946;6.140;2023-09-12T14:50:52;5.88;;;3.17;;
21837;SDS011;11081;45.946;6.140;2023-09-12T14:53:21;3.83;;;2.92;;
21837;SDS011;11081;45.946;6.140;2023-09-12T14:55:49;4.72;;;2.78;;
21837;SDS011;11081;45.946;6.140;2023-09-12T14:58:17;6.35;;;3.60;;
21837;SDS011;11081;45.946;6.140;2023-09-12T15:00:45;7.63;;;3.22;;
21837;SDS011;11081;45.946;6.140;2023-09-12T15:03:13;4.47;;;3.22;;
21837;SDS011;11081;45.946;6.140;2023-09-12T15:05:42;9.55;;;3.20;;